createdAt,value
2022-12-25T00:02:10.424Z,67.10
2022-12-25T00:07:14.966Z,63.00
2022-12-25T00:12:19.814Z,61.96
2022-12-25T00:17:23.839Z,60.29
2022-12-25T00:22:27.791Z,60.26
2022-12-25T00:27:34.393Z,57.65
2022-12-25T00:32:38.412Z,59.31
2022-12-25T00:37:42.117Z,61.62
2022-12-25T00:42:45.845Z,65.88
2022-12-25T00:47:49.454Z,65.50
2022-12-25T00:52:53.071Z,65.67
2022-12-25T00:57:56.802Z,64.13
2022-12-25T01:03:00.559Z,61.98
2022-12-25T01:08:05.499Z,60.37
2022-12-25T01:13:09.099Z,59.30
2022-12-25T01:18:13.048Z,55.75
2022-12-25T01:23:17.769Z,58.39
2022-12-25T01:28:21.374Z,60.94
2022-12-25T01:33:25.214Z,67.58
2022-12-25T01:38:29.033Z,66.48
2022-12-25T01:43:34.640Z,60.38
2022-12-25T01:48:40.067Z,55.24
2022-12-25T01:53:43.780Z,57.97
2022-12-25T01:58:48.198Z,61.29
2022-12-25T02:04:03.107Z,68.15
2022-12-25T02:09:07.043Z,67.38
2022-12-25T02:14:11.265Z,62.30
2022-12-25T02:20:13.670Z,59.40
2022-12-25T02:25:58.656Z,56.78
2022-12-25T02:31:16.547Z,60.13
2022-12-25T02:36:27.268Z,68.23
2022-12-25T02:41:37.790Z,61.97
2022-12-25T02:47:03.217Z,56.40
2022-12-25T02:52:40.628Z,59.98
2022-12-25T02:58:08.961Z,67.10
2022-12-25T03:03:35.489Z,60.12
2022-12-25T03:08:45.412Z,56.22
2022-12-25T03:14:17.248Z,59.11
2022-12-25T03:19:46.046Z,61.91
2022-12-25T03:25:09.530Z,69.92
2022-12-25T03:30:39.764Z,61.54
2022-12-25T03:36:05.833Z,55.31
2022-12-25T03:41:52.559Z,59.09
2022-12-25T03:47:35.430Z,61.46
2022-12-25T03:53:00.318Z,70.38
2022-12-25T03:58:22.980Z,66.26
2022-12-25T04:03:45.716Z,57.44
2022-12-25T04:09:08.309Z,56.66
2022-12-25T04:14:38.656Z,56.63
2022-12-25T04:20:01.390Z,60.64
2022-12-25T04:25:24.712Z,71.37
2022-12-25T04:30:47.014Z,62.96
2022-12-25T04:36:09.439Z,56.13
2022-12-25T04:41:14.686Z,58.74
2022-12-25T04:46:18.343Z,60.71
2022-12-25T04:51:25.822Z,61.15
2022-12-25T04:56:29.640Z,70.51
2022-12-25T05:01:34.067Z,66.08
2022-12-25T05:06:37.982Z,58.21
2022-12-25T05:11:41.569Z,56.75
2022-12-25T05:16:45.353Z,60.10
2022-12-25T05:21:49.102Z,65.41
2022-12-25T05:26:52.897Z,66.63
2022-12-25T05:31:57.645Z,57.56
2022-12-25T05:37:01.121Z,57.42
2022-12-25T05:42:04.899Z,61.02
2022-12-25T05:47:08.446Z,67.84
2022-12-25T05:52:12.629Z,62.67
2022-12-25T05:57:16.224Z,54.83
2022-12-25T06:02:20.101Z,57.71
2022-12-25T06:07:23.883Z,59.70
2022-12-25T06:12:27.534Z,63.93
2022-12-25T06:17:34.056Z,69.96
2022-12-25T06:22:38.556Z,61.60
2022-12-25T06:27:45.048Z,55.05
2022-12-25T06:32:49.793Z,56.16
2022-12-25T06:37:54.479Z,63.63
2022-12-25T06:42:58.062Z,66.60
2022-12-25T06:48:04.258Z,60.73
2022-12-25T06:53:09.702Z,55.96
2022-12-25T06:58:14.955Z,59.70
2022-12-25T07:03:22.681Z,61.55
2022-12-25T07:08:26.264Z,69.64
2022-12-25T07:13:30.322Z,63.87
2022-12-25T07:18:36.101Z,56.51
2022-12-25T07:23:40.432Z,56.99
2022-12-25T07:28:44.390Z,60.21
2022-12-25T07:33:48.598Z,67.71
2022-12-25T07:38:52.319Z,65.14
2022-12-25T07:43:56.325Z,56.96
2022-12-25T07:49:00.328Z,57.21
2022-12-25T07:54:04.846Z,60.13
2022-12-25T07:59:09.154Z,66.48
2022-12-25T08:04:13.284Z,66.72
2022-12-25T08:09:17.121Z,60.16
2022-12-25T08:14:21.047Z,56.47
2022-12-25T08:19:24.988Z,59.22
2022-12-25T08:24:28.910Z,60.75
2022-12-25T08:29:34.007Z,68.37
2022-12-25T08:34:40.757Z,65.54
2022-12-25T08:39:44.678Z,63.06
2022-12-25T08:44:48.817Z,61.72
2022-12-25T08:49:54.977Z,60.74
2022-12-25T08:54:59.329Z,59.04
2022-12-25T09:00:08.566Z,58.74
2022-12-25T09:05:14.359Z,60.56
2022-12-25T09:10:23.165Z,66.40
2022-12-25T09:15:30.267Z,66.29
2022-12-25T09:20:39.027Z,63.04
2022-12-25T09:25:46.960Z,61.47
2022-12-25T09:30:53.857Z,60.64
2022-12-25T09:36:02.410Z,60.11
2022-12-25T09:41:58.327Z,59.97
2022-12-25T09:47:13.827Z,59.91
2022-12-25T09:52:55.457Z,60.53
2022-12-25T09:58:08.922Z,60.74
2022-12-25T10:04:02.418Z,60.69
2022-12-25T10:09:24.649Z,61.34
2022-12-25T10:14:59.812Z,61.36
2022-12-25T10:20:53.498Z,62.40
2022-12-25T10:26:16.622Z,63.87
2022-12-25T10:31:34.353Z,63.73
2022-12-25T10:36:38.765Z,63.37
2022-12-25T10:42:23.670Z,64.25
2022-12-25T10:47:33.433Z,64.99
2022-12-25T10:57:58.216Z,61.02
2022-12-25T11:03:02.296Z,64.05
2022-12-25T11:08:23.645Z,63.10
2022-12-25T11:13:30.931Z,59.59
2022-12-25T11:18:54.239Z,62.63
2022-12-25T11:24:02.634Z,65.42
2022-12-25T11:29:26.245Z,63.43
2022-12-25T11:34:49.423Z,63.24
2022-12-25T11:39:53.168Z,62.14
2022-12-25T11:45:24.524Z,61.73
2022-12-25T11:50:36.760Z,62.67
2022-12-25T11:55:57.432Z,61.81
2022-12-25T12:01:27.948Z,56.95
2022-12-25T12:07:01.539Z,55.77
2022-12-25T12:12:15.932Z,59.43
2022-12-25T12:17:20.803Z,66.96
2022-12-25T12:22:28.677Z,64.30
2022-12-25T12:27:39.727Z,62.46
2022-12-25T12:32:54.282Z,59.51
2022-12-25T12:38:04.715Z,58.54
2022-12-25T12:43:23.294Z,60.19
2022-12-25T12:48:30.651Z,67.42
2022-12-25T12:53:35.609Z,66.63
2022-12-25T12:58:46.630Z,63.48
2022-12-25T13:04:09.037Z,61.23
2022-12-25T13:09:36.086Z,60.53
2022-12-25T13:14:48.516Z,60.13
2022-12-25T13:20:02.806Z,57.72
2022-12-25T13:25:20.148Z,58.45
2022-12-25T13:30:25.990Z,68.85
2022-12-25T13:35:30.439Z,65.44
2022-12-25T13:40:35.103Z,62.05
2022-12-25T13:45:39.039Z,61.32
2022-12-25T13:50:48.976Z,61.12
2022-12-25T13:55:56.293Z,60.14
2022-12-25T14:01:03.065Z,56.29
2022-12-25T14:06:31.186Z,58.31
2022-12-25T14:11:36.835Z,61.66
2022-12-25T14:16:45.055Z,67.68
2022-12-25T14:22:12.624Z,66.68
2022-12-25T14:27:30.930Z,62.16
2022-12-25T14:32:44.303Z,56.66
2022-12-25T14:37:56.795Z,57.93
2022-12-25T14:43:03.835Z,60.84
2022-12-25T14:48:25.486Z,67.46
2022-12-25T14:53:46.874Z,66.46
2022-12-25T14:59:00.520Z,63.59
2022-12-25T15:04:11.591Z,60.40
2022-12-25T15:09:19.439Z,57.94
2022-12-25T15:14:25.586Z,59.51
2022-12-25T15:19:38.999Z,61.92
2022-12-25T15:24:43.102Z,67.73
2022-12-25T15:35:21.876Z,65.62
2022-12-25T15:40:25.646Z,62.34
2022-12-25T15:45:31.500Z,62.18
2022-12-25T15:50:37.096Z,62.42
2022-12-25T15:55:41.612Z,62.48
2022-12-25T16:00:45.407Z,62.44
2022-12-25T16:05:51.097Z,63.40
2022-12-25T16:10:55.321Z,65.70
2022-12-25T16:15:59.473Z,63.56
2022-12-25T16:21:03.625Z,61.27
2022-12-25T16:26:07.709Z,61.12
2022-12-25T16:31:12.720Z,62.11
2022-12-25T16:36:19.494Z,63.48
2022-12-25T16:41:27.588Z,65.05
2022-12-25T16:46:32.063Z,66.79
2022-12-25T16:51:36.243Z,60.45
2022-12-25T16:56:40.904Z,64.35
2022-12-25T17:01:45.653Z,64.28
2022-12-25T17:06:49.934Z,61.69
2022-12-25T17:11:53.806Z,60.27
2022-12-25T17:16:58.147Z,65.47
2022-12-25T17:22:02.460Z,63.78
2022-12-25T17:27:09.035Z,62.38
2022-12-25T17:32:13.125Z,63.32
2022-12-25T17:37:17.654Z,65.47
2022-12-25T17:42:21.563Z,65.71
2022-12-25T17:47:26.601Z,65.52
2022-12-25T17:52:33.337Z,65.37
2022-12-25T17:57:41.037Z,65.13
2022-12-25T18:02:47.670Z,65.59
2022-12-25T18:07:52.691Z,65.98
2022-12-25T18:12:57.321Z,66.39
2022-12-25T18:18:01.449Z,67.99
2022-12-25T18:23:06.090Z,68.64
2022-12-25T18:28:11.567Z,69.61
2022-12-25T18:33:16.938Z,69.34
2022-12-25T18:38:22.483Z,69.01
2022-12-25T18:43:54.196Z,70.07
2022-12-25T18:48:52.400Z,69.76
2022-12-25T18:53:58.567Z,70.21
2022-12-25T18:59:02.796Z,69.74
2022-12-25T19:04:09.171Z,69.52
2022-12-25T19:09:14.367Z,70.00
2022-12-25T19:14:19.893Z,69.83
2022-12-25T19:19:27.378Z,68.59
2022-12-25T19:24:34.166Z,68.22
2022-12-25T19:29:38.534Z,68.43
2022-12-25T19:34:43.487Z,68.71
2022-12-25T19:39:48.125Z,69.26
2022-12-25T19:44:51.838Z,69.41
2022-12-25T19:49:58.406Z,69.17
2022-12-25T19:55:09.259Z,64.57
2022-12-25T20:00:15.554Z,63.91
2022-12-25T20:05:22.446Z,63.44
2022-12-25T20:10:26.709Z,61.74
2022-12-25T20:15:46.517Z,61.07
2022-12-25T20:21:14.535Z,61.49
2022-12-25T20:26:23.873Z,61.78
2022-12-25T20:31:34.466Z,61.93
2022-12-25T20:36:38.879Z,61.52
2022-12-25T20:41:45.501Z,61.32
2022-12-25T20:46:50.975Z,61.27
2022-12-25T20:51:59.800Z,60.26
2022-12-25T20:57:09.381Z,58.28
2022-12-25T21:02:34.969Z,65.40
2022-12-25T21:07:38.822Z,65.96
2022-12-25T21:12:43.007Z,63.78
2022-12-25T21:17:47.320Z,64.73
2022-12-25T21:22:52.721Z,65.23
2022-12-25T21:28:01.063Z,66.63
2022-12-25T21:33:25.172Z,67.98
2022-12-25T21:38:29.124Z,67.16
2022-12-25T21:43:34.752Z,67.49
2022-12-25T21:48:41.296Z,67.56
2022-12-25T21:53:46.010Z,68.79
2022-12-25T21:58:51.534Z,70.51
2022-12-25T22:03:57.475Z,70.88
2022-12-25T22:09:03.179Z,72.03
2022-12-25T22:14:50.511Z,73.96
2022-12-25T22:19:57.910Z,72.80
2022-12-25T22:25:04.878Z,71.98
2022-12-25T22:30:22.066Z,71.99
2022-12-25T22:35:27.585Z,71.99
2022-12-25T22:40:31.933Z,72.22
2022-12-25T22:45:37.500Z,73.38
2022-12-25T22:50:41.307Z,73.34
2022-12-25T22:55:50.778Z,73.63
2022-12-25T23:00:55.237Z,73.61
2022-12-25T23:05:59.198Z,73.33
2022-12-25T23:11:06.515Z,73.02
2022-12-25T23:16:15.856Z,72.03
2022-12-25T23:21:38.669Z,68.37
2022-12-25T23:26:43.522Z,66.71
2022-12-25T23:31:54.001Z,67.05
2022-12-25T23:36:58.532Z,68.13
2022-12-25T23:42:03.189Z,69.03
2022-12-25T23:47:06.923Z,66.21
2022-12-25T23:52:13.543Z,64.99
2022-12-25T23:57:17.219Z,65.19
